sensor_id;sensor_type;location;lat;lon;timestamp;P1;durP1;ratioP1;P2;durP2;ratioP2
18104;SDS011;9179;50.968;3.134;2023-05-20T00:00:37;16.90;;;11.23;;
18104;SDS011;9179;50.968;3.134;2023-05-20T00:03:05;14.95;;;10.43;;
18104;SDS011;9179;50.968;3.134;2023-05-20T00:05:32;14.95;;;11.50;;
18104;SDS011;9179;50.968;3.134;2023-05-20T00:07:59;16.42;;;10.70;;
18104;SDS011;9179;50.968;3.134;2023-05-20T00:10:28;14.43;;;9.90;;
18104;SDS011;9179;50.968;3.134;2023-05-20T00:12:55;15.60;;;11.30;;
18104;SDS011;9179;50.968;3.134;2023-05-20T00:15:22;16.33;;;11.00;;
18104;SDS011;9179;50.968;3.134;2023-05-20T00:17:49;14.23;;;10.13;;
18104;SDS011;9179;50.968;3.134;2023-05-20T00:20:18;16.00;;;11.05;;
18104;SDS011;9179;50.968;3.134;2023-05-20T00:22:44;16.05;;;11.18;;
18104;SDS011;9179;50.968;3.134;2023-05-20T00:25:12;17.80;;;11.43;;
18104;SDS011;9179;50.968;3.134;2023-05-20T00:27:39;19.75;;;11.30;;
18104;SDS011;9179;50.968;3.134;2023-05-20T00:30:06;23.05;;;12.85;;
18104;SDS011;9179;50.968;3.134;2023-05-20T00:32:34;13.15;;;11.05;;
18104;SDS011;9179;50.968;3.134;2023-05-20T00:35:01;13.30;;;11.68;;
18104;SDS011;9179;50.968;3.134;2023-05-20T00:37:31;19.77;;;12.63;;
18104;SDS011;9179;50.968;3.134;2023-05-20T00:39:58;21.08;;;14.23;;
18104;SDS011;9179;50.968;3.134;2023-05-20T00:42:25;19.75;;;11.50;;
18104;SDS011;9179;50.968;3.134;2023-05-20T00:44:53;17.15;;;11.23;;
18104;SDS011;9179;50.968;3.134;2023-05-20T00:47:22;16.77;;;11.75;;
18104;SDS011;9179;50.968;3.134;2023-05-20T00:49:56;18.42;;;13.20;;
18104;SDS011;9179;50.968;3.134;2023-05-20T00:52:24;16.23;;;11.30;;
18104;SDS011;9179;50.968;3.134;2023-05-20T00:54:56;12.20;;;10.98;;
18104;SDS011;9179;50.968;3.134;2023-05-20T00:57:23;17.15;;;13.25;;
18104;SDS011;9179;50.968;3.134;2023-05-20T00:59:50;18.55;;;13.23;;
18104;SDS011;9179;50.968;3.134;2023-05-20T01:02:18;18.20;;;13.00;;
18104;SDS011;9179;50.968;3.134;2023-05-20T01:04:45;14.82;;;12.55;;
18104;SDS011;9179;50.968;3.134;2023-05-20T01:07:12;18.77;;;12.25;;
18104;SDS011;9179;50.968;3.134;2023-05-20T01:09:41;12.88;;;11.57;;
18104;SDS011;9179;50.968;3.134;2023-05-20T01:12:11;17.60;;;12.82;;
18104;SDS011;9179;50.968;3.134;2023-05-20T01:14:42;18.55;;;13.32;;
18104;SDS011;9179;50.968;3.134;2023-05-20T01:17:14;14.98;;;12.75;;
18104;SDS011;9179;50.968;3.134;2023-05-20T01:19:42;16.73;;;12.68;;
18104;SDS011;9179;50.968;3.134;2023-05-20T01:22:10;15.13;;;13.02;;
18104;SDS011;9179;50.968;3.134;2023-05-20T01:24:40;14.27;;;12.57;;
18104;SDS011;9179;50.968;3.134;2023-05-20T01:27:08;16.13;;;11.95;;
18104;SDS011;9179;50.968;3.134;2023-05-20T01:29:36;18.73;;;12.40;;
18104;SDS011;9179;50.968;3.134;2023-05-20T01:32:04;15.23;;;12.68;;
18104;SDS011;9179;50.968;3.134;2023-05-20T01:34:34;20.30;;;12.30;;
18104;SDS011;9179;50.968;3.134;2023-05-20T01:37:02;17.65;;;11.70;;
18104;SDS011;9179;50.968;3.134;2023-05-20T01:39:31;17.48;;;12.55;;
18104;SDS011;9179;50.968;3.134;2023-05-20T01:42:03;17.13;;;12.48;;
18104;SDS011;9179;50.968;3.134;2023-05-20T01:44:30;14.68;;;11.63;;
18104;SDS011;9179;50.968;3.134;2023-05-20T01:46:58;15.95;;;13.50;;
18104;SDS011;9179;50.968;3.134;2023-05-20T01:49:25;16.92;;;12.02;;
18104;SDS011;9179;50.968;3.134;2023-05-20T01:51:52;14.05;;;11.70;;
18104;SDS011;9179;50.968;3.134;2023-05-20T01:54:20;12.32;;;11.02;;
18104;SDS011;9179;50.968;3.134;2023-05-20T01:56:47;13.77;;;10.80;;
18104;SDS011;9179;50.968;3.134;2023-05-20T01:59:16;13.35;;;11.13;;
18104;SDS011;9179;50.968;3.134;2023-05-20T02:01:43;13.68;;;11.38;;
18104;SDS011;9179;50.968;3.134;2023-05-20T02:04:10;11.70;;;10.35;;
18104;SDS011;9179;50.968;3.134;2023-05-20T02:06:37;12.77;;;11.40;;
18104;SDS011;9179;50.968;3.134;2023-05-20T02:09:04;14.32;;;11.18;;
18104;SDS011;9179;50.968;3.134;2023-05-20T02:11:31;14.85;;;11.27;;
18104;SDS011;9179;50.968;3.134;2023-05-20T02:13:57;12.50;;;10.32;;
18104;SDS011;9179;50.968;3.134;2023-05-20T02:16:26;12.05;;;10.35;;
18104;SDS011;9179;50.968;3.134;2023-05-20T02:18:53;11.77;;;10.60;;
18104;SDS011;9179;50.968;3.134;2023-05-20T02:21:22;14.73;;;11.45;;
18104;SDS011;9179;50.968;3.134;2023-05-20T02:23:49;14.20;;;9.88;;
18104;SDS011;9179;50.968;3.134;2023-05-20T02:26:16;12.48;;;10.45;;
18104;SDS011;9179;50.968;3.134;2023-05-20T02:28:44;13.02;;;11.35;;
18104;SDS011;9179;50.968;3.134;2023-05-20T02:31:14;11.30;;;10.00;;
18104;SDS011;9179;50.968;3.134;2023-05-20T02:33:43;10.85;;;9.77;;
18104;SDS011;9179;50.968;3.134;2023-05-20T02:36:10;10.30;;;9.07;;
18104;SDS011;9179;50.968;3.134;2023-05-20T02:38:37;10.02;;;8.60;;
18104;SDS011;9179;50.968;3.134;2023-05-20T02:41:04;12.15;;;9.48;;
18104;SDS011;9179;50.968;3.134;2023-05-20T02:43:31;10.98;;;9.57;;
18104;SDS011;9179;50.968;3.134;2023-05-20T02:46:00;10.05;;;9.20;;
18104;SDS011;9179;50.968;3.134;2023-05-20T02:48:27;11.90;;;9.35;;
18104;SDS011;9179;50.968;3.134;2023-05-20T02:50:55;13.25;;;8.88;;
18104;SDS011;9179;50.968;3.134;2023-05-20T02:53:24;12.13;;;8.77;;
18104;SDS011;9179;50.968;3.134;2023-05-20T02:55:51;9.32;;;8.15;;
18104;SDS011;9179;50.968;3.134;2023-05-20T02:58:18;12.50;;;8.65;;
18104;SDS011;9179;50.968;3.134;2023-05-20T03:00:50;12.40;;;9.30;;
18104;SDS011;9179;50.968;3.134;2023-05-20T03:03:17;11.30;;;8.63;;
18104;SDS011;9179;50.968;3.134;2023-05-20T03:05:44;10.30;;;7.78;;
18104;SDS011;9179;50.968;3.134;2023-05-20T03:08:12;10.52;;;7.63;;
18104;SDS011;9179;50.968;3.134;2023-05-20T03:10:40;13.40;;;8.02;;
18104;SDS011;9179;50.968;3.134;2023-05-20T03:13:07;9.25;;;7.57;;
18104;SDS011;9179;50.968;3.134;2023-05-20T03:15:35;8.38;;;7.50;;
18104;SDS011;9179;50.968;3.134;2023-05-20T03:18:02;10.50;;;8.18;;
18104;SDS011;9179;50.968;3.134;2023-05-20T03:20:30;10.80;;;9.05;;
18104;SDS011;9179;50.968;3.134;2023-05-20T03:22:57;9.73;;;8.52;;
18104;SDS011;9179;50.968;3.134;2023-05-20T03:25:26;10.48;;;7.65;;
18104;SDS011;9179;50.968;3.134;2023-05-20T03:27:53;7.85;;;7.13;;
18104;SDS011;9179;50.968;3.134;2023-05-20T03:30:20;7.95;;;7.20;;
18104;SDS011;9179;50.968;3.134;2023-05-20T03:32:47;11.55;;;7.50;;
18104;SDS011;9179;50.968;3.134;2023-05-20T03:35:14;8.98;;;7.70;;
18104;SDS011;9179;50.968;3.134;2023-05-20T03:37:41;8.05;;;6.53;;
18104;SDS011;9179;50.968;3.134;2023-05-20T03:40:09;9.68;;;7.38;;
18104;SDS011;9179;50.968;3.134;2023-05-20T03:42:37;8.07;;;7.28;;
18104;SDS011;9179;50.968;3.134;2023-05-20T03:45:05;9.43;;;7.25;;
18104;SDS011;9179;50.968;3.134;2023-05-20T03:47:32;9.23;;;7.15;;
18104;SDS011;9179;50.968;3.134;2023-05-20T03:49:59;8.02;;;7.07;;
18104;SDS011;9179;50.968;3.134;2023-05-20T03:52:26;8.30;;;6.70;;
18104;SDS011;9179;50.968;3.134;2023-05-20T03:54:53;13.65;;;7.00;;
18104;SDS011;9179;50.968;3.134;2023-05-20T03:57:21;9.98;;;6.50;;
18104;SDS011;9179;50.968;3.134;2023-05-20T03:59:49;9.15;;;6.55;;
18104;SDS011;9179;50.968;3.134;2023-05-20T04:02:16;8.43;;;6.15;;
18104;SDS011;9179;50.968;3.134;2023-05-20T04:04:43;9.77;;;6.00;;
18104;SDS011;9179;50.968;3.134;2023-05-20T04:07:10;9.13;;;6.78;;
18104;SDS011;9179;50.968;3.134;2023-05-20T04:09:37;11.40;;;7.82;;
18104;SDS011;9179;50.968;3.134;2023-05-20T04:12:04;8.45;;;6.90;;
18104;SDS011;9179;50.968;3.134;2023-05-20T04:14:32;10.02;;;6.28;;
18104;SDS011;9179;50.968;3.134;2023-05-20T04:17:02;6.72;;;6.05;;
18104;SDS011;9179;50.968;3.134;2023-05-20T04:19:29;7.32;;;6.63;;
18104;SDS011;9179;50.968;3.134;2023-05-20T04:21:58;7.93;;;6.43;;
18104;SDS011;9179;50.968;3.134;2023-05-20T04:24:26;7.35;;;6.15;;
18104;SDS011;9179;50.968;3.134;2023-05-20T04:26:53;6.65;;;5.80;;
18104;SDS011;9179;50.968;3.134;2023-05-20T04:29:20;8.70;;;6.55;;
18104;SDS011;9179;50.968;3.134;2023-05-20T04:31:47;8.43;;;5.95;;
18104;SDS011;9179;50.968;3.134;2023-05-20T04:34:15;9.60;;;5.68;;
18104;SDS011;9179;50.968;3.134;2023-05-20T04:36:44;7.43;;;6.38;;
18104;SDS011;9179;50.968;3.134;2023-05-20T04:39:11;8.55;;;5.93;;
18104;SDS011;9179;50.968;3.134;2023-05-20T04:41:39;6.80;;;5.95;;
18104;SDS011;9179;50.968;3.134;2023-05-20T04:44:06;7.55;;;5.43;;
18104;SDS011;9179;50.968;3.134;2023-05-20T04:46:33;6.30;;;5.55;;
18104;SDS011;9179;50.968;3.134;2023-05-20T04:49:00;9.82;;;5.75;;
18104;SDS011;9179;50.968;3.134;2023-05-20T04:51:29;8.60;;;5.55;;
18104;SDS011;9179;50.968;3.134;2023-05-20T04:53:58;6.53;;;5.00;;
18104;SDS011;9179;50.968;3.134;2023-05-20T04:56:25;6.28;;;5.15;;
18104;SDS011;9179;50.968;3.134;2023-05-20T04:58:52;6.72;;;5.95;;
18104;SDS011;9179;50.968;3.134;2023-05-20T05:01:20;7.13;;;5.95;;
18104;SDS011;9179;50.968;3.134;2023-05-20T05:03:47;6.75;;;5.60;;
18104;SDS011;9179;50.968;3.134;2023-05-20T05:06:14;7.35;;;5.45;;
18104;SDS011;9179;50.968;3.134;2023-05-20T05:08:42;7.82;;;5.65;;
18104;SDS011;9179;50.968;3.134;2023-05-20T05:11:09;6.18;;;4.95;;
18104;SDS011;9179;50.968;3.134;2023-05-20T05:13:36;5.50;;;5.10;;
18104;SDS011;9179;50.968;3.134;2023-05-20T05:16:03;8.45;;;5.45;;
18104;SDS011;9179;50.968;3.134;2023-05-20T05:18:30;5.93;;;5.13;;
18104;SDS011;9179;50.968;3.134;2023-05-20T05:20:58;7.15;;;5.05;;
18104;SDS011;9179;50.968;3.134;2023-05-20T05:23:26;6.75;;;5.32;;
18104;SDS011;9179;50.968;3.134;2023-05-20T05:25:54;7.43;;;5.03;;
18104;SDS011;9179;50.968;3.134;2023-05-20T05:28:21;5.38;;;4.88;;
18104;SDS011;9179;50.968;3.134;2023-05-20T05:30:48;6.57;;;5.35;;
18104;SDS011;9179;50.968;3.134;2023-05-20T05:33:15;6.28;;;5.10;;
18104;SDS011;9179;50.968;3.134;2023-05-20T05:35:42;6.43;;;5.57;;
18104;SDS011;9179;50.968;3.134;2023-05-20T05:38:09;6.95;;;5.13;;
18104;SDS011;9179;50.968;3.134;2023-05-20T05:40:36;6.70;;;5.13;;
18104;SDS011;9179;50.968;3.134;2023-05-20T05:43:04;9.65;;;6.00;;
18104;SDS011;9179;50.968;3.134;2023-05-20T05:45:31;7.70;;;5.07;;
18104;SDS011;9179;50.968;3.134;2023-05-20T05:47:58;6.03;;;5.38;;
18104;SDS011;9179;50.968;3.134;2023-05-20T05:50:25;5.50;;;4.97;;
18104;SDS011;9179;50.968;3.134;2023-05-20T05:52:52;7.10;;;4.97;;
18104;SDS011;9179;50.968;3.134;2023-05-20T05:55:19;5.72;;;5.22;;
18104;SDS011;9179;50.968;3.134;2023-05-20T05:57:47;6.13;;;4.63;;
18104;SDS011;9179;50.968;3.134;2023-05-20T06:00:17;7.82;;;5.93;;
18104;SDS011;9179;50.968;3.134;2023-05-20T06:02:45;5.65;;;5.05;;
18104;SDS011;9179;50.968;3.134;2023-05-20T06:05:12;7.10;;;5.57;;
18104;SDS011;9179;50.968;3.134;2023-05-20T06:07:39;5.30;;;4.75;;
18104;SDS011;9179;50.968;3.134;2023-05-20T06:10:06;5.72;;;4.80;;
18104;SDS011;9179;50.968;3.134;2023-05-20T06:12:34;5.32;;;4.85;;
18104;SDS011;9179;50.968;3.134;2023-05-20T06:15:01;5.82;;;5.00;;
18104;SDS011;9179;50.968;3.134;2023-05-20T06:17:29;6.78;;;4.80;;
18104;SDS011;9179;50.968;3.134;2023-05-20T06:19:56;6.00;;;5.13;;
18104;SDS011;9179;50.968;3.134;2023-05-20T06:22:24;7.13;;;5.07;;
18104;SDS011;9179;50.968;3.134;2023-05-20T06:24:52;6.50;;;4.82;;
18104;SDS011;9179;50.968;3.134;2023-05-20T06:27:20;6.28;;;5.18;;
18104;SDS011;9179;50.968;3.134;2023-05-20T06:29:47;5.75;;;4.90;;
18104;SDS011;9179;50.968;3.134;2023-05-20T06:32:14;6.88;;;6.28;;
18104;SDS011;9179;50.968;3.134;2023-05-20T06:34:42;7.78;;;5.97;;
18104;SDS011;9179;50.968;3.134;2023-05-20T06:37:09;7.32;;;5.68;;
18104;SDS011;9179;50.968;3.134;2023-05-20T06:39:36;6.15;;;5.10;;
18104;SDS011;9179;50.968;3.134;2023-05-20T06:42:03;6.80;;;5.70;;
18104;SDS011;9179;50.968;3.134;2023-05-20T06:44:30;8.68;;;6.07;;
18104;SDS011;9179;50.968;3.134;2023-05-20T06:46:57;6.72;;;5.93;;
18104;SDS011;9179;50.968;3.134;2023-05-20T06:49:24;10.43;;;6.15;;
18104;SDS011;9179;50.968;3.134;2023-05-20T06:51:53;8.27;;;5.97;;
18104;SDS011;9179;50.968;3.134;2023-05-20T06:54:20;8.23;;;5.90;;
18104;SDS011;9179;50.968;3.134;2023-05-20T06:56:47;6.13;;;5.53;;
18104;SDS011;9179;50.968;3.134;2023-05-20T06:59:14;5.78;;;5.25;;
18104;SDS011;9179;50.968;3.134;2023-05-20T07:01:41;8.30;;;6.03;;
18104;SDS011;9179;50.968;3.134;2023-05-20T07:04:08;6.70;;;5.30;;
18104;SDS011;9179;50.968;3.134;2023-05-20T07:06:35;8.07;;;5.20;;
18104;SDS011;9179;50.968;3.134;2023-05-20T07:09:03;6.03;;;5.43;;
18104;SDS011;9179;50.968;3.134;2023-05-20T07:11:30;6.32;;;5.70;;
18104;SDS011;9179;50.968;3.134;2023-05-20T07:13:57;5.50;;;4.53;;
18104;SDS011;9179;50.968;3.134;2023-05-20T07:16:24;8.95;;;5.82;;
18104;SDS011;9179;50.968;3.134;2023-05-20T07:18:51;8.07;;;5.30;;
18104;SDS011;9179;50.968;3.134;2023-05-20T07:21:18;6.90;;;5.97;;
18104;SDS011;9179;50.968;3.134;2023-05-20T07:23:45;5.05;;;4.63;;
18104;SDS011;9179;50.968;3.134;2023-05-20T07:26:13;5.40;;;4.75;;
18104;SDS011;9179;50.968;3.134;2023-05-20T07:28:40;8.43;;;5.68;;
18104;SDS011;9179;50.968;3.134;2023-05-20T07:31:08;5.10;;;4.38;;
18104;SDS011;9179;50.968;3.134;2023-05-20T07:33:35;5.30;;;4.75;;
18104;SDS011;9179;50.968;3.134;2023-05-20T07:36:02;5.80;;;5.22;;
18104;SDS011;9179;50.968;3.134;2023-05-20T07:38:29;5.32;;;4.55;;
18104;SDS011;9179;50.968;3.134;2023-05-20T07:40:57;4.68;;;4.40;;
18104;SDS011;9179;50.968;3.134;2023-05-20T07:43:25;5.32;;;4.47;;
18104;SDS011;9179;50.968;3.134;2023-05-20T07:45:52;5.18;;;4.15;;
18104;SDS011;9179;50.968;3.134;2023-05-20T07:48:19;4.78;;;4.47;;
18104;SDS011;9179;50.968;3.134;2023-05-20T07:50:46;5.43;;;4.70;;
18104;SDS011;9179;50.968;3.134;2023-05-20T07:53:13;5.00;;;4.13;;
18104;SDS011;9179;50.968;3.134;2023-05-20T07:55:41;6.90;;;4.90;;
18104;SDS011;9179;50.968;3.134;2023-05-20T07:58:08;5.30;;;4.00;;
18104;SDS011;9179;50.968;3.134;2023-05-20T08:00:36;5.00;;;4.63;;
18104;SDS011;9179;50.968;3.134;2023-05-20T08:03:03;5.85;;;4.82;;
18104;SDS011;9179;50.968;3.134;2023-05-20T08:05:31;7.40;;;4.90;;
18104;SDS011;9179;50.968;3.134;2023-05-20T08:07:59;7.82;;;4.78;;
18104;SDS011;9179;50.968;3.134;2023-05-20T08:10:25;5.32;;;4.93;;
18104;SDS011;9179;50.968;3.134;2023-05-20T08:12:52;4.38;;;4.00;;
18104;SDS011;9179;50.968;3.134;2023-05-20T08:15:23;6.82;;;5.00;;
18104;SDS011;9179;50.968;3.134;2023-05-20T08:17:51;5.00;;;3.85;;
18104;SDS011;9179;50.968;3.134;2023-05-20T08:20:18;6.15;;;4.22;;
18104;SDS011;9179;50.968;3.134;2023-05-20T08:22:45;5.25;;;4.55;;
18104;SDS011;9179;50.968;3.134;2023-05-20T08:25:12;4.22;;;3.83;;
18104;SDS011;9179;50.968;3.134;2023-05-20T08:27:40;7.80;;;4.65;;
18104;SDS011;9179;50.968;3.134;2023-05-20T08:30:08;4.50;;;4.20;;
18104;SDS011;9179;50.968;3.134;2023-05-20T08:32:36;3.90;;;3.60;;
18104;SDS011;9179;50.968;3.134;2023-05-20T08:35:05;6.38;;;4.65;;
18104;SDS011;9179;50.968;3.134;2023-05-20T08:37:39;8.57;;;4.18;;
18104;SDS011;9179;50.968;3.134;2023-05-20T08:40:09;4.20;;;3.83;;
18104;SDS011;9179;50.968;3.134;2023-05-20T08:42:42;4.28;;;3.88;;
18104;SDS011;9179;50.968;3.134;2023-05-20T08:45:14;5.55;;;3.63;;
18104;SDS011;9179;50.968;3.134;2023-05-20T08:47:44;6.53;;;4.50;;
18104;SDS011;9179;50.968;3.134;2023-05-20T08:50:12;4.40;;;4.10;;
18104;SDS011;9179;50.968;3.134;2023-05-20T08:52:41;6.63;;;4.45;;
18104;SDS011;9179;50.968;3.134;2023-05-20T08:55:10;6.07;;;4.07;;
18104;SDS011;9179;50.968;3.134;2023-05-20T08:57:40;5.15;;;3.88;;
18104;SDS011;9179;50.968;3.134;2023-05-20T09:00:10;5.90;;;4.20;;
18104;SDS011;9179;50.968;3.134;2023-05-20T09:02:41;4.40;;;3.97;;
18104;SDS011;9179;50.968;3.134;2023-05-20T09:05:09;3.92;;;3.53;;
18104;SDS011;9179;50.968;3.134;2023-05-20T09:07:37;4.38;;;3.97;;
18104;SDS011;9179;50.968;3.134;2023-05-20T09:10:07;4.30;;;4.00;;
18104;SDS011;9179;50.968;3.134;2023-05-20T09:12:34;3.92;;;3.58;;
18104;SDS011;9179;50.968;3.134;2023-05-20T09:15:02;5.22;;;3.50;;
18104;SDS011;9179;50.968;3.134;2023-05-20T09:17:30;4.55;;;4.15;;
18104;SDS011;9179;50.968;3.134;2023-05-20T09:20:00;4.28;;;3.85;;
18104;SDS011;9179;50.968;3.134;2023-05-20T09:22:28;6.25;;;3.90;;
18104;SDS011;9179;50.968;3.134;2023-05-20T09:24:56;4.57;;;3.40;;
18104;SDS011;9179;50.968;3.134;2023-05-20T09:27:23;4.32;;;3.90;;
18104;SDS011;9179;50.968;3.134;2023-05-20T09:29:50;3.88;;;3.58;;
18104;SDS011;9179;50.968;3.134;2023-05-20T09:32:18;5.30;;;3.95;;
18104;SDS011;9179;50.968;3.134;2023-05-20T09:34:48;5.20;;;3.88;;
18104;SDS011;9179;50.968;3.134;2023-05-20T09:37:20;6.38;;;4.57;;
18104;SDS011;9179;50.968;3.134;2023-05-20T09:39:50;7.35;;;3.53;;
18104;SDS011;9179;50.968;3.134;2023-05-20T09:42:24;5.40;;;3.25;;
18104;SDS011;9179;50.968;3.134;2023-05-20T09:44:53;3.88;;;3.53;;
18104;SDS011;9179;50.968;3.134;2023-05-20T09:47:22;6.72;;;3.33;;
18104;SDS011;9179;50.968;3.134;2023-05-20T09:49:50;5.13;;;3.75;;
18104;SDS011;9179;50.968;3.134;2023-05-20T09:52:17;3.85;;;3.50;;
18104;SDS011;9179;50.968;3.134;2023-05-20T09:54:44;3.50;;;3.20;;
18104;SDS011;9179;50.968;3.134;2023-05-20T09:57:13;3.75;;;3.45;;
18104;SDS011;9179;50.968;3.134;2023-05-20T09:59:41;3.67;;;3.33;;
18104;SDS011;9179;50.968;3.134;2023-05-20T10:02:10;3.97;;;3.38;;
18104;SDS011;9179;50.968;3.134;2023-05-20T10:04:40;3.70;;;3.38;;
18104;SDS011;9179;50.968;3.134;2023-05-20T10:10:19;4.05;;;3.70;;
18104;SDS011;9179;50.968;3.134;2023-05-20T10:12:54;6.07;;;3.55;;
18104;SDS011;9179;50.968;3.134;2023-05-20T10:15:35;4.82;;;2.92;;
18104;SDS011;9179;50.968;3.134;2023-05-20T10:18:10;3.42;;;3.13;;
18104;SDS011;9179;50.968;3.134;2023-05-20T10:20:45;2.88;;;2.63;;
18104;SDS011;9179;50.968;3.134;2023-05-20T10:23:21;6.93;;;3.00;;
18104;SDS011;9179;50.968;3.134;2023-05-20T10:25:50;3.20;;;2.90;;
18104;SDS011;9179;50.968;3.134;2023-05-20T10:28:26;3.30;;;3.00;;
18104;SDS011;9179;50.968;3.134;2023-05-20T10:30:55;3.90;;;3.05;;
18104;SDS011;9179;50.968;3.134;2023-05-20T10:33:23;3.22;;;2.92;;
18104;SDS011;9179;50.968;3.134;2023-05-20T10:35:52;3.25;;;2.95;;
18104;SDS011;9179;50.968;3.134;2023-05-20T10:38:19;3.70;;;3.38;;
18104;SDS011;9179;50.968;3.134;2023-05-20T10:40:46;3.53;;;3.03;;
18104;SDS011;9179;50.968;3.134;2023-05-20T10:43:14;3.28;;;3.05;;
18104;SDS011;9179;50.968;3.134;2023-05-20T10:45:48;3.90;;;3.42;;
18104;SDS011;9179;50.968;3.134;2023-05-20T10:48:22;4.18;;;3.80;;
18104;SDS011;9179;50.968;3.134;2023-05-20T10:50:50;4.32;;;3.10;;
18104;SDS011;9179;50.968;3.134;2023-05-20T10:53:20;3.45;;;3.15;;
18104;SDS011;9179;50.968;3.134;2023-05-20T10:55:48;4.75;;;3.70;;
18104;SDS011;9179;50.968;3.134;2023-05-20T10:58:17;4.22;;;3.88;;
18104;SDS011;9179;50.968;3.134;2023-05-20T11:00:44;4.50;;;4.00;;
18104;SDS011;9179;50.968;3.134;2023-05-20T11:03:14;7.70;;;3.95;;
18104;SDS011;9179;50.968;3.134;2023-05-20T11:05:44;5.13;;;4.00;;
18104;SDS011;9179;50.968;3.134;2023-05-20T11:08:12;5.43;;;3.97;;
18104;SDS011;9179;50.968;3.134;2023-05-20T11:10:40;4.63;;;4.22;;
18104;SDS011;9179;50.968;3.134;2023-05-20T11:13:10;4.55;;;4.15;;
18104;SDS011;9179;50.968;3.134;2023-05-20T11:15:39;5.35;;;4.00;;
18104;SDS011;9179;50.968;3.134;2023-05-20T11:18:09;5.45;;;4.07;;
18104;SDS011;9179;50.968;3.134;2023-05-20T11:20:39;5.00;;;4.53;;
18104;SDS011;9179;50.968;3.134;2023-05-20T11:23:10;6.22;;;4.97;;
18104;SDS011;9179;50.968;3.134;2023-05-20T11:25:38;4.93;;;4.25;;
18104;SDS011;9179;50.968;3.134;2023-05-20T11:28:07;4.50;;;4.20;;
18104;SDS011;9179;50.968;3.134;2023-05-20T11:30:35;5.82;;;4.22;;
18104;SDS011;9179;50.968;3.134;2023-05-20T11:33:02;6.57;;;3.70;;
18104;SDS011;9179;50.968;3.134;2023-05-20T11:35:30;4.35;;;4.05;;
18104;SDS011;9179;50.968;3.134;2023-05-20T11:38:00;4.07;;;3.67;;
18104;SDS011;9179;50.968;3.134;2023-05-20T11:40:30;5.03;;;4.07;;
18104;SDS011;9179;50.968;3.134;2023-05-20T11:42:59;3.97;;;3.58;;
18104;SDS011;9179;50.968;3.134;2023-05-20T11:45:27;4.32;;;4.03;;
18104;SDS011;9179;50.968;3.134;2023-05-20T11:48:04;4.22;;;3.83;;
18104;SDS011;9179;50.968;3.134;2023-05-20T11:50:33;4.63;;;3.53;;
18104;SDS011;9179;50.968;3.134;2023-05-20T11:53:03;3.97;;;3.58;;
18104;SDS011;9179;50.968;3.134;2023-05-20T11:55:33;3.97;;;3.42;;
18104;SDS011;9179;50.968;3.134;2023-05-20T11:58:00;5.93;;;3.92;;
18104;SDS011;9179;50.968;3.134;2023-05-20T12:00:28;4.78;;;4.13;;
18104;SDS011;9179;50.968;3.134;2023-05-20T12:02:55;5.28;;;4.25;;
18104;SDS011;9179;50.968;3.134;2023-05-20T12:05:22;6.50;;;3.33;;
18104;SDS011;9179;50.968;3.134;2023-05-20T12:07:49;5.13;;;4.13;;
18104;SDS011;9179;50.968;3.134;2023-05-20T12:10:16;5.28;;;3.72;;
18104;SDS011;9179;50.968;3.134;2023-05-20T12:12:44;5.90;;;3.58;;
18104;SDS011;9179;50.968;3.134;2023-05-20T12:15:11;3.95;;;3.63;;
18104;SDS011;9179;50.968;3.134;2023-05-20T12:17:45;3.78;;;3.30;;
18104;SDS011;9179;50.968;3.134;2023-05-20T12:20:14;4.60;;;3.58;;
18104;SDS011;9179;50.968;3.134;2023-05-20T12:22:42;4.07;;;3.42;;
18104;SDS011;9179;50.968;3.134;2023-05-20T12:25:10;5.13;;;3.50;;
18104;SDS011;9179;50.968;3.134;2023-05-20T12:27:38;6.45;;;3.38;;
18104;SDS011;9179;50.968;3.134;2023-05-20T12:30:08;6.60;;;3.35;;
18104;SDS011;9179;50.968;3.134;2023-05-20T12:32:36;5.85;;;3.70;;
18104;SDS011;9179;50.968;3.134;2023-05-20T12:35:03;4.20;;;3.17;;
18104;SDS011;9179;50.968;3.134;2023-05-20T12:37:31;4.05;;;3.08;;
18104;SDS011;9179;50.968;3.134;2023-05-20T12:39:58;3.33;;;3.03;;
18104;SDS011;9179;50.968;3.134;2023-05-20T12:42:25;3.60;;;2.83;;
18104;SDS011;9179;50.968;3.134;2023-05-20T12:44:52;4.38;;;3.45;;
18104;SDS011;9179;50.968;3.134;2023-05-20T12:47:20;3.65;;;2.90;;
18104;SDS011;9179;50.968;3.134;2023-05-20T12:49:47;3.15;;;2.85;;
18104;SDS011;9179;50.968;3.134;2023-05-20T12:52:14;3.30;;;3.00;;
18104;SDS011;9179;50.968;3.134;2023-05-20T12:54:41;2.97;;;2.78;;
18104;SDS011;9179;50.968;3.134;2023-05-20T12:57:08;3.00;;;2.70;;
18104;SDS011;9179;50.968;3.134;2023-05-20T12:59:35;5.43;;;3.55;;
18104;SDS011;9179;50.968;3.134;2023-05-20T13:02:02;3.38;;;3.00;;
18104;SDS011;9179;50.968;3.134;2023-05-20T13:04:30;4.10;;;3.25;;
18104;SDS011;9179;50.968;3.134;2023-05-20T13:06:57;3.90;;;2.95;;
18104;SDS011;9179;50.968;3.134;2023-05-20T13:09:25;4.18;;;2.70;;
18104;SDS011;9179;50.968;3.134;2023-05-20T13:11:52;3.63;;;3.05;;
18104;SDS011;9179;50.968;3.134;2023-05-20T13:14:19;3.15;;;2.95;;
18104;SDS011;9179;50.968;3.134;2023-05-20T13:16:47;2.83;;;2.50;;
18104;SDS011;9179;50.968;3.134;2023-05-20T13:19:18;5.10;;;2.65;;
18104;SDS011;9179;50.968;3.134;2023-05-20T13:21:47;5.07;;;2.97;;
18104;SDS011;9179;50.968;3.134;2023-05-20T13:24:14;2.60;;;2.40;;
18104;SDS011;9179;50.968;3.134;2023-05-20T13:26:41;2.88;;;2.67;;
18104;SDS011;9179;50.968;3.134;2023-05-20T13:29:09;3.10;;;2.80;;
18104;SDS011;9179;50.968;3.134;2023-05-20T13:31:36;3.47;;;3.15;;
18104;SDS011;9179;50.968;3.134;2023-05-20T13:34:04;3.58;;;2.90;;
18104;SDS011;9179;50.968;3.134;2023-05-20T13:36:31;4.35;;;2.63;;
18104;SDS011;9179;50.968;3.134;2023-05-20T13:39:00;3.67;;;2.60;;
18104;SDS011;9179;50.968;3.134;2023-05-20T13:41:27;3.65;;;3.08;;
18104;SDS011;9179;50.968;3.134;2023-05-20T13:43:54;5.18;;;2.22;;
18104;SDS011;9179;50.968;3.134;2023-05-20T13:46:21;2.65;;;2.45;;
18104;SDS011;9179;50.968;3.134;2023-05-20T13:48:48;2.50;;;2.40;;
18104;SDS011;9179;50.968;3.134;2023-05-20T13:51:15;2.63;;;2.30;;
18104;SDS011;9179;50.968;3.134;2023-05-20T13:53:42;2.83;;;2.55;;
18104;SDS011;9179;50.968;3.134;2023-05-20T13:56:11;4.90;;;2.50;;
18104;SDS011;9179;50.968;3.134;2023-05-20T13:58:38;5.55;;;2.47;;
18104;SDS011;9179;50.968;3.134;2023-05-20T14:01:05;2.83;;;2.50;;
18104;SDS011;9179;50.968;3.134;2023-05-20T14:03:32;4.32;;;2.60;;
18104;SDS011;9179;50.968;3.134;2023-05-20T14:06:01;2.58;;;2.35;;
18104;SDS011;9179;50.968;3.134;2023-05-20T14:08:28;3.75;;;3.03;;
18104;SDS011;9179;50.968;3.134;2023-05-20T14:10:55;5.93;;;3.33;;
18104;SDS011;9179;50.968;3.134;2023-05-20T14:13:23;5.95;;;3.88;;
18104;SDS011;9179;50.968;3.134;2023-05-20T14:15:51;7.70;;;3.75;;
18104;SDS011;9179;50.968;3.134;2023-05-20T14:18:18;3.67;;;3.30;;
18104;SDS011;9179;50.968;3.134;2023-05-20T14:20:46;4.22;;;3.03;;
18104;SDS011;9179;50.968;3.134;2023-05-20T14:23:13;4.78;;;3.50;;
18104;SDS011;9179;50.968;3.134;2023-05-20T14:25:40;4.60;;;3.38;;
18104;SDS011;9179;50.968;3.134;2023-05-20T14:28:07;6.53;;;3.38;;
18104;SDS011;9179;50.968;3.134;2023-05-20T14:30:35;7.07;;;3.63;;
18104;SDS011;9179;50.968;3.134;2023-05-20T14:33:02;7.40;;;3.65;;
18104;SDS011;9179;50.968;3.134;2023-05-20T14:35:29;4.15;;;3.60;;
18104;SDS011;9179;50.968;3.134;2023-05-20T14:37:56;6.32;;;4.15;;
18104;SDS011;9179;50.968;3.134;2023-05-20T14:40:24;4.32;;;3.10;;
18104;SDS011;9179;50.968;3.134;2023-05-20T14:42:51;3.85;;;3.42;;
18104;SDS011;9179;50.968;3.134;2023-05-20T14:45:18;4.60;;;3.22;;
18104;SDS011;9179;50.968;3.134;2023-05-20T14:47:46;4.78;;;4.10;;
18104;SDS011;9179;50.968;3.134;2023-05-20T14:50:13;3.97;;;3.30;;
18104;SDS011;9179;50.968;3.134;2023-05-20T14:52:40;5.78;;;3.10;;
18104;SDS011;9179;50.968;3.134;2023-05-20T14:55:08;4.28;;;3.30;;
18104;SDS011;9179;50.968;3.134;2023-05-20T14:57:35;4.22;;;3.20;;
18104;SDS011;9179;50.968;3.134;2023-05-20T15:00:02;8.70;;;3.88;;
18104;SDS011;9179;50.968;3.134;2023-05-20T15:02:30;5.63;;;3.75;;